createdAt,value
2023-01-03T00:00:06.340Z,33.70
2023-01-03T00:01:07.149Z,32.50
2023-01-03T00:02:08.086Z,31.90
2023-01-03T00:03:08.969Z,35.20
2023-01-03T00:04:09.875Z,32.10
2023-01-03T00:05:10.824Z,34.70
2023-01-03T00:06:11.697Z,30.10
2023-01-03T00:07:12.520Z,31.60
2023-01-03T00:08:13.395Z,33.20
2023-01-03T00:09:14.245Z,31.80
2023-01-03T00:10:15.332Z,32.80
2023-01-03T00:11:15.695Z,29.80
2023-01-03T00:12:16.549Z,30.50
2023-01-03T00:13:17.416Z,31.00
2023-01-03T00:14:18.253Z,32.50
2023-01-03T00:15:19.327Z,29.80
2023-01-03T00:16:19.712Z,32.80
2023-01-03T00:17:20.561Z,33.20
2023-01-03T00:18:21.406Z,30.80
2023-01-03T00:19:22.232Z,30.50
2023-01-03T00:20:23.331Z,31.30
2023-01-03T00:21:23.692Z,31.00
2023-01-03T00:22:24.529Z,30.50
2023-01-03T00:23:25.376Z,31.00
2023-01-03T00:24:26.255Z,32.40
2023-01-03T00:25:27.108Z,30.40
2023-01-03T00:26:27.942Z,30.70
2023-01-03T00:27:28.813Z,29.60
2023-01-03T00:28:29.645Z,27.20
2023-01-03T00:29:30.496Z,30.80
2023-01-03T00:30:31.406Z,31.00
2023-01-03T00:31:32.213Z,32.40
2023-01-03T00:32:33.061Z,29.30
2023-01-03T00:33:34.045Z,25.90
2023-01-03T00:34:34.817Z,28.60
2023-01-03T00:35:35.683Z,28.90
2023-01-03T00:36:36.549Z,26.40
2023-01-03T00:37:37.371Z,30.00
2023-01-03T00:38:38.221Z,22.10
2023-01-03T00:39:39.075Z,28.00
2023-01-03T00:40:39.940Z,24.90
2023-01-03T00:41:40.815Z,26.90
2023-01-03T00:42:41.649Z,28.60
2023-01-03T00:43:42.501Z,27.90
2023-01-03T00:44:43.371Z,27.10
2023-01-03T00:45:44.310Z,26.80
2023-01-03T00:46:45.136Z,27.00
2023-01-03T00:47:45.991Z,25.80
2023-01-03T00:48:46.865Z,26.30
2023-01-03T00:49:47.696Z,29.30
2023-01-03T00:50:48.562Z,25.70
2023-01-03T00:51:49.428Z,25.40
2023-01-03T00:52:50.242Z,24.30
2023-01-03T00:53:51.095Z,23.60
2023-01-03T00:54:51.968Z,21.40
2023-01-03T00:55:52.829Z,21.00
2023-01-03T00:56:53.690Z,23.80
2023-01-03T00:57:54.536Z,24.70
2023-01-03T00:58:55.388Z,21.10
2023-01-03T00:59:56.238Z,24.50
2023-01-03T01:00:57.151Z,22.60
2023-01-03T01:01:58.150Z,21.70
2023-01-03T01:02:58.660Z,18.70
2023-01-03T01:03:59.177Z,22.40
2023-01-03T01:05:00.003Z,23.20
2023-01-03T01:06:00.869Z,20.20
2023-01-03T01:07:01.755Z,20.40
2023-01-03T01:08:02.575Z,22.50
2023-01-03T01:09:03.412Z,21.60
2023-01-03T01:10:04.265Z,20.00
2023-01-03T01:11:05.131Z,18.20
2023-01-03T01:12:05.987Z,19.10
2023-01-03T01:13:06.866Z,17.30
2023-01-03T01:14:07.707Z,21.90
2023-01-03T01:15:08.561Z,17.10
2023-01-03T01:16:09.485Z,18.10
2023-01-03T01:17:10.336Z,16.50
2023-01-03T01:18:11.187Z,18.60
2023-01-03T01:19:12.571Z,19.90
2023-01-03T01:20:13.033Z,19.40
2023-01-03T01:21:14.316Z,18.50
2023-01-03T01:22:14.695Z,18.80
2023-01-03T01:23:15.490Z,16.30
2023-01-03T01:24:18.235Z,16.40
2023-01-03T01:25:17.274Z,17.40
2023-01-03T01:26:18.319Z,16.70
2023-01-03T01:27:18.691Z,19.30
2023-01-03T01:28:19.543Z,16.40
2023-01-03T01:29:20.399Z,19.80
2023-01-03T01:30:21.259Z,17.60
2023-01-03T01:31:22.174Z,17.80
2023-01-03T01:32:22.977Z,17.20
2023-01-03T01:33:23.831Z,17.80
2023-01-03T01:34:24.709Z,14.50
2023-01-03T01:35:25.540Z,17.10
2023-01-03T01:36:26.463Z,16.00
2023-01-03T01:37:27.308Z,18.40
2023-01-03T01:38:28.091Z,17.00
2023-01-03T01:39:28.961Z,18.20
2023-01-03T01:40:29.816Z,16.60
2023-01-03T01:41:30.667Z,19.50
2023-01-03T01:42:31.540Z,16.70
2023-01-03T01:43:32.375Z,19.70
2023-01-03T01:44:33.230Z,14.10
2023-01-03T01:45:34.088Z,16.40
2023-01-03T01:46:35.133Z,15.60
2023-01-03T01:47:35.473Z,17.90
2023-01-03T01:48:36.325Z,16.30
2023-01-03T01:49:37.288Z,15.10
2023-01-03T01:50:38.069Z,17.30
2023-01-03T01:51:38.931Z,18.10
2023-01-03T01:52:39.818Z,15.40
2023-01-03T01:53:40.638Z,17.00
2023-01-03T01:54:41.515Z,18.10
2023-01-03T01:55:42.352Z,16.60
2023-01-03T01:56:43.224Z,17.20
2023-01-03T01:57:44.071Z,19.40
2023-01-03T01:58:44.930Z,18.80
2023-01-03T01:59:45.784Z,15.50
2023-01-03T02:00:46.639Z,18.10
2023-01-03T02:01:47.656Z,15.70
2023-01-03T02:02:48.272Z,16.40
2023-01-03T02:03:48.684Z,17.90
2023-01-03T02:04:49.542Z,16.80
2023-01-03T02:05:50.377Z,20.60
2023-01-03T02:06:51.313Z,17.60
2023-01-03T02:07:52.183Z,19.70
2023-01-03T02:08:53.035Z,18.00
2023-01-03T02:09:53.888Z,15.30
2023-01-03T02:10:54.742Z,15.60
2023-01-03T02:11:55.605Z,14.80
2023-01-03T02:12:56.459Z,17.40
2023-01-03T02:13:57.313Z,16.60
2023-01-03T02:14:58.169Z,17.40
2023-01-03T02:15:59.102Z,18.70
2023-01-03T02:16:59.932Z,19.40
2023-01-03T02:18:00.784Z,16.90
2023-01-03T02:19:01.655Z,19.60
2023-01-03T02:20:02.527Z,16.80
2023-01-03T02:21:03.368Z,17.40
2023-01-03T02:22:04.214Z,16.30
2023-01-03T02:23:05.089Z,17.80
2023-01-03T02:24:05.908Z,21.10
2023-01-03T02:25:06.784Z,16.40
2023-01-03T02:26:07.678Z,15.30
2023-01-03T02:27:08.477Z,18.30
2023-01-03T02:28:09.338Z,16.90
2023-01-03T02:29:10.189Z,15.90
2023-01-03T02:30:11.044Z,20.50
2023-01-03T02:31:11.938Z,19.10
2023-01-03T02:32:12.764Z,17.60
2023-01-03T02:33:13.631Z,17.60
2023-01-03T02:34:14.473Z,20.00
2023-01-03T02:35:15.444Z,16.90
2023-01-03T02:36:16.224Z,18.90
2023-01-03T02:37:16.741Z,20.30
2023-01-03T02:38:17.614Z,18.90
2023-01-03T02:39:23.512Z,19.10
2023-01-03T02:40:20.159Z,20.20
2023-01-03T02:41:20.011Z,22.30
2023-01-03T02:42:20.877Z,15.20
2023-01-03T02:43:21.733Z,16.70
2023-01-03T02:44:22.590Z,17.80
2023-01-03T02:45:23.445Z,15.70
2023-01-03T02:46:24.395Z,17.90
2023-01-03T02:47:25.720Z,16.50
2023-01-03T02:48:26.074Z,16.40
2023-01-03T02:49:26.928Z,17.30
2023-01-03T02:50:27.806Z,16.00
2023-01-03T02:51:28.638Z,17.40
2023-01-03T02:52:29.503Z,18.40
2023-01-03T02:53:30.380Z,19.20
2023-01-03T02:54:31.173Z,14.30
2023-01-03T02:55:32.032Z,17.10
2023-01-03T02:56:32.884Z,15.90
2023-01-03T02:57:33.748Z,15.70
2023-01-03T02:58:34.603Z,15.00
2023-01-03T02:59:35.465Z,14.80
2023-01-03T03:00:36.312Z,16.40
2023-01-03T03:01:37.249Z,13.40
2023-01-03T03:02:38.357Z,14.10
2023-01-03T03:03:38.833Z,13.40
2023-01-03T03:04:39.651Z,15.20
2023-01-03T03:05:40.528Z,12.90
2023-01-03T03:06:41.375Z,13.70
2023-01-03T03:07:42.226Z,14.90
2023-01-03T03:08:43.102Z,13.20
2023-01-03T03:09:43.888Z,12.30
2023-01-03T03:10:44.742Z,14.20
2023-01-03T03:11:45.604Z,12.70
2023-01-03T03:12:46.804Z,13.80
2023-01-03T03:13:47.159Z,18.70
2023-01-03T03:14:48.010Z,15.30
2023-01-03T03:15:48.883Z,15.60
2023-01-03T03:16:49.767Z,16.60
2023-01-03T03:17:50.601Z,16.20
2023-01-03T03:18:51.475Z,15.20
2023-01-03T03:19:52.336Z,14.80
2023-01-03T03:20:53.195Z,15.50
2023-01-03T03:21:54.028Z,16.00
2023-01-03T03:22:54.902Z,15.20
2023-01-03T03:23:55.765Z,15.50
2023-01-03T03:24:56.580Z,18.90
2023-01-03T03:25:57.436Z,18.30
2023-01-03T03:26:58.298Z,17.60
2023-01-03T03:27:59.156Z,17.30
2023-01-03T03:29:00.010Z,18.30
2023-01-03T03:30:00.875Z,17.40
2023-01-03T03:31:01.736Z,19.00
2023-01-03T03:32:02.576Z,18.30
2023-01-03T03:33:03.439Z,19.30
2023-01-03T03:34:04.316Z,18.80
2023-01-03T03:35:05.152Z,19.60
2023-01-03T03:36:06.137Z,20.00
2023-01-03T03:37:06.920Z,19.30
2023-01-03T03:38:07.781Z,21.00
2023-01-03T03:39:08.654Z,20.90
2023-01-03T03:40:09.455Z,24.80
2023-01-03T03:41:10.308Z,22.20
2023-01-03T03:42:11.160Z,21.80
2023-01-03T03:43:12.033Z,17.50
2023-01-03T03:44:12.888Z,21.10
2023-01-03T03:45:13.749Z,21.40
2023-01-03T03:46:14.647Z,22.30
2023-01-03T03:47:15.517Z,22.50
2023-01-03T03:48:17.349Z,23.90
2023-01-03T03:49:17.214Z,23.10
2023-01-03T03:50:18.079Z,23.20
2023-01-03T03:51:19.058Z,24.30
2023-01-03T03:52:19.930Z,22.70
2023-01-03T03:53:21.298Z,23.90
2023-01-03T03:54:21.674Z,21.00
2023-01-03T03:55:22.458Z,21.30
2023-01-03T03:56:23.319Z,26.10
2023-01-03T03:57:24.172Z,22.30
2023-01-03T03:58:25.296Z,25.50
2023-01-03T03:59:25.651Z,24.00
2023-01-03T04:00:26.519Z,21.00
2023-01-03T04:01:27.540Z,23.70
2023-01-03T04:02:28.135Z,23.80
2023-01-03T04:03:28.559Z,25.10
2023-01-03T04:04:29.366Z,28.00
2023-01-03T04:05:30.226Z,21.30
2023-01-03T04:06:31.097Z,23.30
2023-01-03T04:07:31.933Z,24.30
2023-01-03T04:08:32.811Z,23.80
2023-01-03T04:09:33.715Z,21.30
2023-01-03T04:10:37.999Z,23.60
2023-01-03T04:11:35.110Z,22.70
2023-01-03T04:12:35.977Z,23.90
2023-01-03T04:13:36.835Z,24.10
2023-01-03T04:14:37.795Z,25.10
2023-01-03T04:15:38.649Z,24.90
2023-01-03T04:16:39.551Z,22.00
2023-01-03T04:17:40.357Z,22.20
2023-01-03T04:18:41.221Z,26.00
2023-01-03T04:19:42.082Z,28.00
2023-01-03T04:20:42.933Z,25.70
2023-01-03T04:21:43.809Z,25.20
2023-01-03T04:22:44.672Z,25.00
2023-01-03T04:23:45.799Z,25.00
2023-01-03T04:24:46.165Z,25.10
2023-01-03T04:25:46.958Z,25.90
2023-01-03T04:26:47.813Z,26.20
2023-01-03T04:27:48.665Z,27.20
2023-01-03T04:28:49.793Z,29.30
2023-01-03T04:29:50.194Z,28.70
2023-01-03T04:30:51.056Z,25.30
2023-01-03T04:31:51.923Z,30.60
2023-01-03T04:32:52.753Z,31.40
2023-01-03T04:33:53.795Z,27.70
2023-01-03T04:34:54.149Z,27.40
2023-01-03T04:35:54.996Z,27.10
2023-01-03T04:36:55.872Z,27.20
2023-01-03T04:37:56.706Z,28.60
2023-01-03T04:38:57.572Z,28.70
2023-01-03T04:39:58.445Z,26.40
2023-01-03T04:40:59.283Z,24.40
2023-01-03T04:42:00.132Z,21.80
2023-01-03T04:43:00.988Z,23.50
2023-01-03T04:44:02.007Z,22.20
2023-01-03T04:45:02.356Z,25.20
2023-01-03T04:46:03.240Z,22.70
2023-01-03T04:47:04.083Z,21.20
2023-01-03T04:48:04.930Z,20.70
2023-01-03T04:49:05.831Z,21.90
2023-01-03T04:50:06.689Z,23.20
2023-01-03T04:51:07.550Z,19.00
2023-01-03T04:52:08.439Z,19.70
2023-01-03T04:53:09.249Z,20.30
2023-01-03T04:54:10.291Z,20.40
2023-01-03T04:55:10.678Z,22.90
2023-01-03T04:56:11.531Z,22.80
2023-01-03T04:57:12.386Z,22.00
2023-01-03T04:58:13.246Z,23.30
2023-01-03T04:59:14.110Z,21.20
2023-01-03T05:00:15.033Z,23.10
2023-01-03T05:01:15.890Z,22.30
2023-01-03T05:02:16.929Z,24.20
2023-01-03T05:03:20.107Z,21.10
2023-01-03T05:04:19.193Z,26.30
2023-01-03T05:05:19.019Z,25.80
2023-01-03T05:06:19.878Z,24.60
2023-01-03T05:07:20.796Z,22.90
2023-01-03T05:08:21.617Z,21.60
2023-01-03T05:09:22.479Z,21.90
2023-01-03T05:10:23.353Z,24.70
2023-01-03T05:11:24.159Z,22.60
2023-01-03T05:12:25.010Z,25.20
2023-01-03T05:13:25.855Z,22.80
2023-01-03T05:14:26.722Z,25.50
2023-01-03T05:15:27.577Z,22.40
2023-01-03T05:16:28.490Z,25.00
2023-01-03T05:17:29.296Z,22.70
2023-01-03T05:18:30.150Z,23.70
2023-01-03T05:19:31.015Z,23.60
2023-01-03T05:20:31.868Z,23.20
2023-01-03T05:21:32.731Z,22.70
2023-01-03T05:22:33.607Z,22.00
2023-01-03T05:23:34.434Z,22.20
2023-01-03T05:24:35.301Z,21.80
2023-01-03T05:25:36.231Z,24.40
2023-01-03T05:26:37.009Z,23.70
2023-01-03T05:27:37.864Z,19.90
2023-01-03T05:28:38.715Z,24.90
2023-01-03T05:29:39.586Z,21.20
2023-01-03T05:30:40.432Z,23.80
2023-01-03T05:31:41.396Z,22.50
2023-01-03T05:32:42.243Z,22.20
2023-01-03T05:33:43.095Z,21.00
2023-01-03T05:34:44.286Z,25.60
2023-01-03T05:35:44.650Z,22.10
2023-01-03T05:36:45.508Z,24.70
2023-01-03T05:37:46.383Z,18.00
2023-01-03T05:38:47.217Z,19.80
2023-01-03T05:39:48.286Z,21.10
2023-01-03T05:40:48.655Z,23.80
2023-01-03T05:41:49.450Z,18.90
2023-01-03T05:42:50.303Z,22.70
2023-01-03T05:43:51.189Z,21.10
2023-01-03T05:44:52.051Z,18.30
2023-01-03T05:45:52.970Z,20.30
2023-01-03T05:46:53.821Z,18.60
2023-01-03T05:47:54.655Z,20.10
2023-01-03T05:48:55.517Z,20.30
2023-01-03T05:49:56.392Z,20.60
2023-01-03T05:50:57.242Z,21.70
2023-01-03T05:51:58.108Z,22.00
2023-01-03T05:52:58.975Z,20.10
2023-01-03T05:53:59.805Z,20.60
2023-01-03T05:55:00.676Z,18.90
2023-01-03T05:56:01.548Z,20.10
2023-01-03T05:57:02.382Z,20.10
2023-01-03T05:58:03.236Z,23.20
2023-01-03T05:59:04.089Z,20.90
2023-01-03T06:00:05.281Z,19.20
2023-01-03T06:01:05.752Z,18.50
2023-01-03T06:02:06.645Z,22.00
2023-01-03T06:03:07.734Z,22.30
2023-01-03T06:04:08.176Z,19.60
2023-01-03T06:05:09.023Z,21.40
2023-01-03T06:06:09.893Z,19.10
2023-01-03T06:07:10.740Z,22.10
2023-01-03T06:08:11.621Z,20.60
2023-01-03T06:09:12.477Z,20.60
2023-01-03T06:10:13.349Z,20.30
2023-01-03T06:11:14.245Z,20.00
2023-01-03T06:12:15.014Z,23.90
2023-01-03T06:13:15.887Z,20.90
2023-01-03T06:14:16.770Z,19.70
2023-01-03T06:15:17.786Z,22.30
2023-01-03T06:16:24.347Z,21.40
2023-01-03T06:17:19.948Z,20.30
2023-01-03T06:18:19.762Z,22.20
2023-01-03T06:19:20.618Z,20.70
2023-01-03T06:20:21.777Z,21.20
2023-01-03T06:21:22.138Z,18.20
2023-01-03T06:22:22.992Z,19.10
2023-01-03T06:23:23.860Z,19.40
2023-01-03T06:24:24.704Z,22.60
2023-01-03T06:25:25.559Z,18.40
2023-01-03T06:26:26.448Z,20.20
2023-01-03T06:27:27.299Z,20.40
2023-01-03T06:28:28.160Z,20.00
2023-01-03T06:29:29.014Z,20.30
2023-01-03T06:30:29.971Z,19.30
2023-01-03T06:31:30.839Z,20.00
2023-01-03T06:32:31.664Z,20.40
2023-01-03T06:33:32.532Z,20.20
2023-01-03T06:34:33.375Z,18.30
2023-01-03T06:35:34.239Z,18.80
2023-01-03T06:36:35.096Z,19.30
2023-01-03T06:37:35.967Z,19.80
2023-01-03T06:38:36.856Z,19.20
2023-01-03T06:39:37.691Z,19.20
2023-01-03T06:40:45.471Z,20.20
2023-01-03T06:41:40.621Z,16.50
2023-01-03T06:42:40.440Z,19.50
2023-01-03T06:43:41.313Z,19.80
2023-01-03T06:44:42.213Z,19.10
2023-01-03T06:45:43.422Z,17.70
2023-01-03T06:46:43.813Z,19.10
2023-01-03T06:47:44.666Z,16.70
2023-01-03T06:48:45.524Z,20.90
2023-01-03T06:49:46.383Z,20.40
2023-01-03T06:50:47.786Z,19.70
2023-01-03T06:51:48.149Z,22.40
2023-01-03T06:52:49.033Z,18.40
2023-01-03T06:53:49.908Z,19.00
2023-01-03T06:54:50.746Z,20.40
2023-01-03T06:55:56.758Z,21.40
2023-01-03T06:56:53.541Z,21.30
2023-01-03T06:57:53.333Z,19.00
2023-01-03T06:58:54.185Z,20.60
2023-01-03T06:59:55.042Z,21.80
2023-01-03T07:00:55.909Z,18.80
2023-01-03T07:01:57.035Z,18.40
2023-01-03T07:02:57.590Z,16.40
2023-01-03T07:03:58.499Z,14.70
2023-01-03T07:04:59.404Z,18.40
2023-01-03T07:06:00.214Z,19.60
2023-01-03T07:07:01.075Z,15.90
2023-01-03T07:08:01.926Z,18.50
2023-01-03T07:09:02.801Z,17.10
2023-01-03T07:10:03.634Z,17.30
2023-01-03T07:11:04.511Z,18.00
2023-01-03T07:12:05.377Z,14.90
2023-01-03T07:13:06.179Z,17.00
2023-01-03T07:14:07.035Z,15.30
2023-01-03T07:15:07.892Z,19.80
2023-01-03T07:16:08.861Z,16.00
2023-01-03T07:17:09.738Z,14.00
2023-01-03T07:18:10.589Z,16.60
2023-01-03T07:19:11.438Z,13.60
2023-01-03T07:20:12.305Z,14.60
2023-01-03T07:21:13.300Z,15.30
2023-01-03T07:22:14.123Z,14.10
2023-01-03T07:23:14.977Z,12.80
2023-01-03T07:24:15.856Z,18.00
2023-01-03T07:25:16.684Z,17.80
2023-01-03T07:26:17.547Z,16.70
2023-01-03T07:27:18.429Z,15.70
2023-01-03T07:28:19.225Z,14.60
2023-01-03T07:29:20.096Z,12.30
2023-01-03T07:30:20.953Z,11.50
2023-01-03T07:31:22.371Z,13.30
2023-01-03T07:32:22.710Z,13.30
2023-01-03T07:33:23.564Z,13.00
2023-01-03T07:34:24.416Z,16.80
2023-01-03T07:35:25.273Z,16.40
2023-01-03T07:36:26.140Z,15.30
2023-01-03T07:37:26.991Z,13.80
2023-01-03T07:38:27.839Z,14.50
2023-01-03T07:39:28.710Z,18.40
2023-01-03T07:40:29.545Z,14.70
2023-01-03T07:41:30.409Z,13.70
2023-01-03T07:42:31.278Z,14.90
2023-01-03T07:43:32.069Z,16.60
2023-01-03T07:44:32.954Z,17.10
2023-01-03T07:45:33.777Z,12.00
2023-01-03T07:46:34.712Z,13.80
2023-01-03T07:47:35.581Z,12.40
2023-01-03T07:48:36.396Z,12.00
2023-01-03T07:49:37.253Z,13.30
2023-01-03T07:50:38.107Z,11.90
2023-01-03T07:51:38.987Z,8.90
2023-01-03T07:52:39.850Z,13.50
2023-01-03T07:53:40.697Z,10.40
2023-01-03T07:54:41.569Z,11.50
2023-01-03T07:55:42.422Z,14.00
2023-01-03T07:56:43.286Z,12.60
2023-01-03T07:57:44.154Z,14.00
2023-01-03T07:58:44.944Z,12.40
2023-01-03T07:59:45.802Z,11.50
2023-01-03T08:00:46.666Z,13.40
2023-01-03T08:01:47.949Z,11.20
2023-01-03T08:02:48.495Z,11.80
2023-01-03T08:03:48.931Z,11.10
2023-01-03T08:04:49.832Z,10.60
2023-01-03T08:05:50.663Z,10.80
2023-01-03T08:06:51.767Z,12.20
2023-01-03T08:07:52.128Z,10.40
2023-01-03T08:08:52.983Z,14.90
2023-01-03T08:09:53.873Z,13.00
2023-01-03T08:10:54.697Z,15.40
2023-01-03T08:11:55.572Z,12.70
2023-01-03T08:12:56.454Z,12.40
2023-01-03T08:13:57.237Z,12.80
2023-01-03T08:14:58.090Z,11.60
2023-01-03T08:15:59.019Z,12.10
2023-01-03T08:17:00.270Z,12.40
2023-01-03T08:18:00.616Z,11.30
2023-01-03T08:19:01.473Z,11.60
2023-01-03T08:20:02.345Z,11.90
2023-01-03T08:21:03.195Z,12.00
2023-01-03T08:22:04.063Z,11.60
2023-01-03T08:23:04.913Z,8.40
2023-01-03T08:24:05.768Z,10.40
2023-01-03T08:25:06.653Z,10.10
2023-01-03T08:26:07.484Z,7.80
2023-01-03T08:27:08.357Z,10.70
2023-01-03T08:28:09.216Z,7.80
2023-01-03T08:29:10.028Z,9.40
2023-01-03T08:30:10.869Z,10.40
2023-01-03T08:31:11.772Z,12.30
2023-01-03T08:32:12.621Z,8.30
2023-01-03T08:33:13.454Z,10.30
2023-01-03T08:34:19.642Z,7.40
2023-01-03T08:35:16.087Z,10.80
2023-01-03T08:36:15.922Z,10.30
2023-01-03T08:37:17.262Z,9.60
2023-01-03T08:38:17.632Z,7.30
2023-01-03T08:39:18.495Z,8.60
2023-01-03T08:40:19.382Z,9.90
2023-01-03T08:41:20.255Z,7.90
2023-01-03T08:42:20.798Z,9.30
2023-01-03T08:43:21.635Z,8.20
2023-01-03T08:44:22.430Z,7.60
2023-01-03T08:45:23.285Z,8.20
2023-01-03T08:46:24.258Z,7.60
2023-01-03T08:47:25.114Z,7.80
2023-01-03T08:48:25.953Z,7.80
2023-01-03T08:49:26.816Z,8.20
2023-01-03T08:50:27.662Z,8.30
2023-01-03T08:51:28.517Z,6.70
2023-01-03T08:52:34.792Z,6.70
2023-01-03T08:53:31.146Z,7.90
2023-01-03T08:54:30.998Z,8.40
2023-01-03T08:55:31.875Z,7.80
2023-01-03T08:56:32.713Z,8.90
2023-01-03T08:57:33.574Z,6.60
2023-01-03T08:58:34.489Z,7.70
2023-01-03T08:59:35.273Z,7.20
2023-01-03T09:00:36.129Z,7.10
2023-01-03T09:01:37.114Z,7.20
2023-01-03T09:02:37.680Z,8.40
2023-01-03T09:03:38.209Z,6.30
2023-01-03T09:04:38.613Z,7.40
2023-01-03T09:05:39.475Z,7.70
2023-01-03T09:06:40.333Z,7.60
2023-01-03T09:07:41.266Z,6.10
2023-01-03T09:08:42.132Z,8.00
2023-01-03T09:09:42.983Z,8.40
2023-01-03T09:10:47.552Z,7.70
2023-01-03T09:11:44.822Z,9.50
2023-01-03T09:12:45.759Z,7.50
2023-01-03T09:13:46.634Z,6.30
2023-01-03T09:14:47.421Z,6.80
2023-01-03T09:15:48.358Z,6.90
2023-01-03T09:16:49.733Z,7.50
2023-01-03T09:17:50.106Z,6.60
2023-01-03T09:18:50.969Z,6.90
2023-01-03T09:19:51.839Z,8.10
2023-01-03T09:20:52.687Z,7.50
2023-01-03T09:21:53.551Z,6.80
2023-01-03T09:22:54.410Z,9.70
2023-01-03T09:23:55.260Z,8.40
2023-01-03T09:24:56.115Z,8.20
2023-01-03T09:25:56.989Z,9.80
2023-01-03T09:26:57.827Z,7.00
2023-01-03T09:27:58.685Z,6.90
2023-01-03T09:28:59.559Z,7.80
2023-01-03T09:30:00.349Z,6.50
2023-01-03T09:31:01.280Z,5.70
2023-01-03T09:32:02.231Z,6.30
2023-01-03T09:33:03.045Z,7.30
2023-01-03T09:34:03.892Z,9.10
2023-01-03T09:35:04.752Z,7.00
2023-01-03T09:36:05.617Z,5.80
2023-01-03T09:37:06.479Z,7.20
2023-01-03T09:38:07.348Z,7.50
2023-01-03T09:39:08.200Z,7.70
2023-01-03T09:40:09.055Z,6.40
2023-01-03T09:41:09.930Z,8.50
2023-01-03T09:42:10.800Z,8.20
2023-01-03T09:43:11.760Z,7.30
2023-01-03T09:44:12.662Z,8.40
2023-01-03T09:45:13.448Z,7.50
2023-01-03T09:46:14.359Z,7.40
2023-01-03T09:47:15.197Z,8.50
2023-01-03T09:48:16.042Z,8.90
2023-01-03T09:49:16.896Z,5.60
2023-01-03T09:50:31.940Z,6.60
2023-01-03T09:51:25.877Z,5.80
2023-01-03T09:52:20.329Z,8.10
2023-01-03T09:53:20.206Z,7.80
2023-01-03T09:54:21.060Z,7.90
2023-01-03T09:55:21.922Z,6.50
2023-01-03T09:56:22.788Z,7.90
2023-01-03T09:57:28.415Z,8.20
2023-01-03T09:58:25.387Z,7.90
2023-01-03T09:59:25.257Z,7.60
2023-01-03T10:00:26.058Z,7.90
2023-01-03T10:01:27.133Z,7.30
2023-01-03T10:02:27.613Z,6.80
2023-01-03T10:03:28.592Z,5.70
2023-01-03T10:04:29.392Z,6.10
2023-01-03T10:05:30.257Z,6.30
2023-01-03T10:06:31.104Z,7.70
2023-01-03T10:07:31.965Z,6.60
2023-01-03T10:08:32.819Z,5.90
2023-01-03T10:09:33.679Z,7.20
2023-01-03T10:10:34.529Z,5.50
2023-01-03T10:11:35.413Z,7.30
2023-01-03T10:12:36.252Z,6.10
2023-01-03T10:13:37.279Z,7.50
2023-01-03T10:14:37.646Z,6.60
2023-01-03T10:15:38.471Z,8.00
2023-01-03T10:16:39.417Z,7.60
2023-01-03T10:17:40.275Z,7.00
2023-01-03T10:18:41.259Z,8.10
2023-01-03T10:19:42.122Z,8.00
2023-01-03T10:20:42.992Z,6.80
2023-01-03T10:21:43.840Z,5.50
2023-01-03T10:22:44.693Z,7.00
2023-01-03T10:23:45.764Z,7.40
2023-01-03T10:24:46.130Z,8.00
2023-01-03T10:25:46.985Z,6.50
2023-01-03T10:26:47.970Z,6.30
2023-01-03T10:27:48.754Z,6.60
2023-01-03T10:28:49.761Z,5.20
2023-01-03T10:29:50.130Z,6.40
2023-01-03T10:30:58.326Z,5.70
2023-01-03T10:31:52.811Z,6.60
2023-01-03T10:32:52.622Z,7.80
2023-01-03T10:33:53.764Z,7.70
2023-01-03T10:34:54.117Z,6.50
2023-01-03T10:35:54.968Z,6.70
2023-01-03T10:36:55.823Z,5.50
2023-01-03T10:37:56.679Z,6.50
2023-01-03T10:38:57.541Z,7.10
2023-01-03T10:39:58.395Z,6.50
2023-01-03T10:40:59.256Z,6.90
2023-01-03T10:42:00.158Z,5.60
2023-01-03T10:43:00.957Z,6.20
2023-01-03T10:44:01.898Z,6.10
2023-01-03T10:45:02.713Z,5.50
2023-01-03T10:46:03.569Z,7.50
2023-01-03T10:47:04.414Z,6.90
2023-01-03T10:48:05.269Z,7.50
2023-01-03T10:50:08.015Z,7.20
2023-01-03T10:51:07.871Z,8.50
2023-01-03T10:52:08.739Z,7.20
2023-01-03T10:53:09.593Z,5.40
2023-01-03T10:54:10.786Z,7.00
2023-01-03T10:55:11.127Z,7.60
2023-01-03T10:56:12.000Z,8.80
2023-01-03T10:57:12.867Z,8.10
2023-01-03T10:58:13.707Z,5.60
2023-01-03T10:59:14.571Z,6.50
2023-01-03T11:00:15.443Z,7.10
2023-01-03T11:01:16.359Z,7.60
2023-01-03T11:02:17.398Z,7.10
2023-01-03T11:03:17.866Z,7.30
2023-01-03T11:04:18.762Z,6.80
2023-01-03T11:05:19.617Z,9.40
2023-01-03T11:06:20.482Z,6.30
2023-01-03T11:07:21.356Z,6.30
2023-01-03T11:08:22.210Z,6.20
2023-01-03T11:09:23.270Z,5.90
2023-01-03T11:10:23.626Z,9.10
2023-01-03T11:11:24.496Z,6.50
2023-01-03T11:12:25.355Z,6.00
2023-01-03T11:13:26.184Z,6.00
2023-01-03T11:14:27.061Z,5.90
2023-01-03T11:15:32.480Z,8.00
2023-01-03T11:16:29.711Z,5.80
2023-01-03T11:17:29.518Z,8.00
2023-01-03T11:18:30.390Z,5.50
2023-01-03T11:19:31.260Z,5.60
2023-01-03T11:20:32.103Z,5.20
2023-01-03T11:21:32.953Z,7.10
2023-01-03T11:22:37.604Z,6.80
2023-01-03T11:23:34.789Z,4.90
2023-01-03T11:24:35.656Z,7.20
2023-01-03T11:25:36.522Z,5.90
2023-01-03T11:26:37.370Z,6.30
2023-01-03T11:27:38.240Z,7.50
2023-01-03T11:28:38.726Z,5.10
2023-01-03T11:29:39.756Z,7.70
2023-01-03T11:30:40.201Z,7.40
2023-01-03T11:31:41.025Z,6.60
2023-01-03T11:32:41.841Z,6.90
2023-01-03T11:33:42.705Z,6.90
2023-01-03T11:35:20.688Z,5.70
2023-01-03T11:35:45.314Z,5.70
2023-01-03T11:36:45.198Z,7.70
2023-01-03T11:37:46.030Z,7.80
2023-01-03T11:38:46.877Z,6.70
2023-01-03T11:39:47.739Z,7.60
2023-01-03T11:40:48.594Z,8.10
2023-01-03T11:41:49.470Z,8.60
2023-01-03T11:42:50.351Z,7.10
2023-01-03T11:43:51.175Z,6.00
2023-01-03T11:44:52.259Z,6.50
2023-01-03T11:45:52.669Z,7.30
2023-01-03T11:46:53.570Z,6.40
2023-01-03T11:47:54.361Z,5.90
2023-01-03T11:48:55.232Z,8.40
2023-01-03T11:49:56.102Z,7.10
2023-01-03T11:50:56.949Z,5.40
2023-01-03T11:51:57.809Z,5.90
2023-01-03T11:52:58.656Z,7.30
2023-01-03T11:53:59.512Z,7.90
2023-01-03T11:55:00.394Z,5.50
2023-01-03T11:56:01.243Z,6.40
2023-01-03T11:57:02.261Z,7.00
2023-01-03T11:58:02.632Z,5.80
2023-01-03T11:59:03.473Z,7.60
2023-01-03T12:00:04.346Z,6.50
2023-01-03T12:01:05.354Z,8.40
2023-01-03T12:02:06.332Z,6.60
2023-01-03T12:03:06.930Z,8.80
2023-01-03T12:04:07.406Z,7.30
2023-01-03T12:05:08.758Z,7.80
2023-01-03T12:06:09.114Z,6.30
2023-01-03T12:07:45.892Z,6.90
2023-01-03T12:08:11.774Z,9.70
2023-01-03T12:09:11.594Z,7.60
2023-01-03T12:10:12.471Z,8.70
2023-01-03T12:11:13.364Z,6.90
2023-01-03T12:12:14.243Z,7.30
2023-01-03T12:13:15.299Z,8.40
2023-01-03T12:14:16.078Z,6.90
2023-01-03T12:15:17.261Z,6.70
2023-01-03T12:16:17.724Z,9.00
2023-01-03T12:17:18.574Z,8.00
2023-01-03T12:18:19.426Z,6.90
2023-01-03T12:19:20.283Z,7.70
2023-01-03T12:20:21.144Z,5.90
2023-01-03T12:21:21.996Z,5.60
2023-01-03T12:22:22.861Z,8.00
2023-01-03T12:23:23.703Z,7.20
2023-01-03T12:24:24.563Z,7.70
2023-01-03T12:25:25.427Z,6.70
2023-01-03T12:26:26.281Z,7.90
2023-01-03T12:27:27.174Z,8.20
2023-01-03T12:28:27.997Z,7.30
2023-01-03T12:29:28.828Z,7.30
2023-01-03T12:30:29.694Z,8.90
2023-01-03T12:31:32.203Z,7.20
2023-01-03T12:32:31.388Z,6.50
2023-01-03T12:33:32.243Z,6.30
2023-01-03T12:34:33.099Z,6.60
2023-01-03T12:35:34.276Z,7.80
2023-01-03T12:36:34.623Z,6.60
2023-01-03T12:37:35.478Z,6.70
2023-01-03T12:38:36.339Z,7.10
2023-01-03T12:39:37.196Z,8.50
2023-01-03T12:40:38.271Z,6.50
2023-01-03T12:41:38.613Z,6.20
2023-01-03T12:42:39.491Z,6.10
2023-01-03T12:43:40.360Z,6.40
2023-01-03T12:44:41.204Z,6.40
2023-01-03T12:45:42.252Z,7.60
2023-01-03T12:46:42.699Z,8.50
2023-01-03T12:47:43.495Z,9.50
2023-01-03T12:48:44.362Z,7.30
2023-01-03T12:49:45.203Z,8.70
2023-01-03T12:50:46.072Z,8.80
2023-01-03T12:51:46.929Z,7.30
2023-01-03T12:52:47.772Z,8.90
2023-01-03T12:53:48.627Z,8.70
2023-01-03T12:54:49.480Z,7.90
2023-01-03T12:55:50.769Z,7.70
2023-01-03T12:56:51.125Z,7.80
2023-01-03T12:57:52.001Z,10.70
2023-01-03T12:58:52.844Z,7.10
2023-01-03T12:59:53.678Z,10.20
2023-01-03T13:00:54.540Z,9.00
2023-01-03T13:01:55.570Z,7.30
2023-01-03T13:02:56.151Z,7.90
2023-01-03T13:03:56.695Z,7.40
2023-01-03T13:04:57.565Z,9.80
2023-01-03T13:05:58.428Z,6.30
2023-01-03T13:06:59.283Z,8.00
2023-01-03T13:08:00.189Z,7.50
2023-01-03T13:09:00.989Z,8.20
2023-01-03T13:10:02.056Z,8.10
2023-01-03T13:11:02.381Z,6.70
2023-01-03T13:12:03.229Z,7.30
2023-01-03T13:13:04.082Z,5.50